sensor_id;sensor_type;location;lat;lon;timestamp;pressure;altitude;pressure_sealevel;temperature;humidity
9235;BME280;4652;42.716;23.218;2023-04-07T00:03:22;94545.69;;;1.71;83.20
9235;BME280;4652;42.716;23.218;2023-04-07T00:10:06;94551.00;;;1.71;81.85
9235;BME280;4652;42.716;23.218;2023-04-07T00:16:48;94540.72;;;1.75;81.15
9235;BME280;4652;42.716;23.218;2023-04-07T00:23:30;94534.03;;;1.72;81.33
9235;BME280;4652;42.716;23.218;2023-04-07T00:30:14;94542.81;;;1.73;80.65
9235;BME280;4652;42.716;23.218;2023-04-07T00:36:57;94533.31;;;1.77;80.70
9235;BME280;4652;42.716;23.218;2023-04-07T00:43:39;94531.06;;;1.86;75.94
9235;BME280;4652;42.716;23.218;2023-04-07T00:50:22;94531.88;;;1.86;76.91
9235;BME280;4652;42.716;23.218;2023-04-07T00:57:05;94506.75;;;1.77;75.42
9235;BME280;4652;42.716;23.218;2023-04-07T07:08:07;94569.91;;;8.12;49.70
9235;BME280;4652;42.716;23.218;2023-04-07T07:14:49;94574.50;;;7.73;51.29
9235;BME280;4652;42.716;23.218;2023-04-07T07:21:31;94569.06;;;7.83;51.44
9235;BME280;4652;42.716;23.218;2023-04-07T07:28:14;94578.09;;;8.36;51.26
9235;BME280;4652;42.716;23.218;2023-04-07T07:34:56;94589.16;;;8.86;49.30
9235;BME280;4652;42.716;23.218;2023-04-07T07:41:38;94570.03;;;10.01;47.55
9235;BME280;4652;42.716;23.218;2023-04-07T07:48:22;94579.84;;;10.30;46.30
9235;BME280;4652;42.716;23.218;2023-04-07T07:55:04;94593.75;;;9.57;47.93
9235;BME280;4652;42.716;23.218;2023-04-07T08:01:46;94596.56;;;9.47;48.69
9235;BME280;4652;42.716;23.218;2023-04-07T08:08:29;94535.25;;;9.07;48.32
9235;BME280;4652;42.716;23.218;2023-04-07T08:15:11;94597.50;;;9.98;49.30
9235;BME280;4652;42.716;23.218;2023-04-07T08:21:53;94599.63;;;10.01;48.16
9235;BME280;4652;42.716;23.218;2023-04-07T08:28:37;94593.91;;;10.27;47.41
9235;BME280;4652;42.716;23.218;2023-04-07T08:35:19;94592.75;;;10.65;45.83
9235;BME280;4652;42.716;23.218;2023-04-07T08:42:02;94583.13;;;10.91;45.70
9235;BME280;4652;42.716;23.218;2023-04-07T08:48:48;94587.94;;;10.30;46.71
9235;BME280;4652;42.716;23.218;2023-04-07T08:55:31;94590.84;;;11.39;44.10
9235;BME280;4652;42.716;23.218;2023-04-07T09:02:16;94588.94;;;12.29;44.78
9235;BME280;4652;42.716;23.218;2023-04-07T09:09:00;94565.53;;;13.14;44.08
9235;BME280;4652;42.716;23.218;2023-04-07T09:15:43;94586.13;;;12.79;43.56
9235;BME280;4652;42.716;23.218;2023-04-07T09:22:36;94578.88;;;11.31;44.88
9235;BME280;4652;42.716;23.218;2023-04-07T09:29:19;94609.44;;;11.54;44.26
9235;BME280;4652;42.716;23.218;2023-04-07T09:36:01;94606.25;;;10.79;45.29
9235;BME280;4652;42.716;23.218;2023-04-07T09:42:44;94604.09;;;9.87;48.09
9235;BME280;4652;42.716;23.218;2023-04-07T09:49:29;94605.00;;;10.01;48.25
9235;BME280;4652;42.716;23.218;2023-04-07T09:56:11;94592.38;;;10.21;47.19
9235;BME280;4652;42.716;23.218;2023-04-07T10:02:54;94605.88;;;10.34;48.41
9235;BME280;4652;42.716;23.218;2023-04-07T10:09:39;94610.06;;;10.59;47.67
9235;BME280;4652;42.716;23.218;2023-04-07T10:16:21;94588.94;;;10.15;48.62
9235;BME280;4652;42.716;23.218;2023-04-07T10:23:08;94608.63;;;9.26;50.38
9235;BME280;4652;42.716;23.218;2023-04-07T10:29:55;94617.19;;;9.28;50.68
9235;BME280;4652;42.716;23.218;2023-04-07T10:37:07;94624.44;;;9.04;50.80
9235;BME280;4652;42.716;23.218;2023-04-07T10:43:50;94617.56;;;8.64;52.62
9235;BME280;4652;42.716;23.218;2023-04-07T10:50:33;94622.03;;;9.02;52.54
9235;BME280;4652;42.716;23.218;2023-04-07T10:57:15;94628.28;;;9.21;52.36
9235;BME280;4652;42.716;23.218;2023-04-07T11:03:58;94631.09;;;9.35;52.54
9235;BME280;4652;42.716;23.218;2023-04-07T11:10:46;94623.78;;;9.40;52.07
9235;BME280;4652;42.716;23.218;2023-04-07T11:17:29;94614.22;;;9.06;51.70
9235;BME280;4652;42.716;23.218;2023-04-07T11:24:30;94633.22;;;9.38;51.91
9235;BME280;4652;42.716;23.218;2023-04-07T11:31:20;94631.47;;;9.71;51.70
9235;BME280;4652;42.716;23.218;2023-04-07T11:38:02;94602.16;;;9.03;53.12
9235;BME280;4652;42.716;23.218;2023-04-07T11:44:45;94631.94;;;9.54;52.60
9235;BME280;4652;42.716;23.218;2023-04-07T11:51:29;94618.34;;;9.69;52.78
9235;BME280;4652;42.716;23.218;2023-04-07T11:58:12;94618.66;;;9.44;52.88
9235;BME280;4652;42.716;23.218;2023-04-07T12:04:55;94624.22;;;9.48;53.08
9235;BME280;4652;42.716;23.218;2023-04-07T12:11:48;94630.03;;;9.36;52.70
9235;BME280;4652;42.716;23.218;2023-04-07T12:18:30;94625.16;;;8.85;53.74
9235;BME280;4652;42.716;23.218;2023-04-07T12:25:12;94630.41;;;9.48;53.56
9235;BME280;4652;42.716;23.218;2023-04-07T12:31:56;94630.34;;;9.53;53.60
9235;BME280;4652;42.716;23.218;2023-04-07T12:38:38;94606.22;;;9.24;52.96
9235;BME280;4652;42.716;23.218;2023-04-07T12:45:20;94623.38;;;9.05;53.56
9235;BME280;4652;42.716;23.218;2023-04-07T12:52:03;94627.72;;;9.24;54.31
9235;BME280;4652;42.716;23.218;2023-04-07T12:58:46;94621.75;;;9.04;54.49
9235;BME280;4652;42.716;23.218;2023-04-07T13:45:17;94649.13;;;8.77;57.46
9235;BME280;4652;42.716;23.218;2023-04-07T13:51:59;94654.03;;;8.26;58.43
9235;BME280;4652;42.716;23.218;2023-04-07T13:58:41;94665.16;;;8.53;58.54
9235;BME280;4652;42.716;23.218;2023-04-07T14:05:24;94659.72;;;8.19;58.57
9235;BME280;4652;42.716;23.218;2023-04-07T14:12:06;94677.34;;;8.36;59.25
9235;BME280;4652;42.716;23.218;2023-04-07T14:18:48;94687.25;;;8.40;60.50
9235;BME280;4652;42.716;23.218;2023-04-07T14:25:32;94692.41;;;8.26;61.21
9235;BME280;4652;42.716;23.218;2023-04-07T14:32:14;94694.44;;;8.50;60.79
9235;BME280;4652;42.716;23.218;2023-04-07T14:38:57;94695.41;;;8.15;61.24
9235;BME280;4652;42.716;23.218;2023-04-07T14:45:40;94706.75;;;8.02;62.39
9235;BME280;4652;42.716;23.218;2023-04-07T14:52:21;94702.53;;;7.86;63.41
9235;BME280;4652;42.716;23.218;2023-04-07T14:59:03;94732.03;;;7.81;64.08
9235;BME280;4652;42.716;23.218;2023-04-07T15:05:47;94726.69;;;7.81;64.63
9235;BME280;4652;42.716;23.218;2023-04-07T15:12:29;94719.16;;;7.83;64.42
9235;BME280;4652;42.716;23.218;2023-04-07T15:19:12;94723.22;;;7.75;64.47
9235;BME280;4652;42.716;23.218;2023-04-07T15:25:57;94734.78;;;7.60;66.43
9235;BME280;4652;42.716;23.218;2023-04-07T15:32:39;94724.13;;;7.45;66.98
9235;BME280;4652;42.716;23.218;2023-04-07T15:39:21;94743.31;;;7.73;65.75
9235;BME280;4652;42.716;23.218;2023-04-07T15:46:05;94750.91;;;7.45;66.51
9235;BME280;4652;42.716;23.218;2023-04-07T15:52:46;94738.59;;;7.34;67.02
9235;BME280;4652;42.716;23.218;2023-04-07T15:59:28;94754.09;;;7.52;67.20
9235;BME280;4652;42.716;23.218;2023-04-07T16:06:12;94756.31;;;7.15;66.20
9235;BME280;4652;42.716;23.218;2023-04-07T16:12:54;94765.66;;;7.28;67.54
9235;BME280;4652;42.716;23.218;2023-04-07T16:19:36;94767.00;;;7.25;68.27
9235;BME280;4652;42.716;23.218;2023-04-07T16:26:19;94782.53;;;7.28;68.22
9235;BME280;4652;42.716;23.218;2023-04-07T16:33:01;94767.50;;;7.32;68.43
9235;BME280;4652;42.716;23.218;2023-04-07T16:39:43;94787.84;;;7.48;68.29
9235;BME280;4652;42.716;23.218;2023-04-07T16:46:27;94799.09;;;7.55;70.41
9235;BME280;4652;42.716;23.218;2023-04-07T16:53:10;94795.34;;;7.61;70.33
9235;BME280;4652;42.716;23.218;2023-04-07T16:59:52;94802.31;;;7.67;70.05
9235;BME280;4652;42.716;23.218;2023-04-07T17:06:35;94792.66;;;7.51;70.06
9235;BME280;4652;42.716;23.218;2023-04-07T17:13:17;94810.06;;;7.54;70.96
9235;BME280;4652;42.716;23.218;2023-04-07T17:19:59;94812.50;;;7.50;68.85
9235;BME280;4652;42.716;23.218;2023-04-07T17:26:43;94812.50;;;7.30;68.90
9235;BME280;4652;42.716;23.218;2023-04-07T17:33:26;94820.56;;;7.15;71.69
9235;BME280;4652;42.716;23.218;2023-04-07T17:40:08;94830.72;;;7.08;72.18
9235;BME280;4652;42.716;23.218;2023-04-07T17:46:52;94846.25;;;7.06;73.54
9235;BME280;4652;42.716;23.218;2023-04-07T17:53:34;94855.28;;;6.80;77.08
9235;BME280;4652;42.716;23.218;2023-04-07T18:00:16;94841.38;;;6.78;80.30
9235;BME280;4652;42.716;23.218;2023-04-07T18:06:59;94874.59;;;6.82;77.67
9235;BME280;4652;42.716;23.218;2023-04-07T18:13:41;94873.44;;;6.58;80.22
9235;BME280;4652;42.716;23.218;2023-04-07T18:20:24;94890.97;;;6.28;81.64
9235;BME280;4652;42.716;23.218;2023-04-07T18:27:08;94883.50;;;6.30;83.43
9235;BME280;4652;42.716;23.218;2023-04-07T18:33:50;94862.53;;;6.07;86.10
9235;BME280;4652;42.716;23.218;2023-04-07T18:40:32;94885.00;;;6.11;86.94
9235;BME280;4652;42.716;23.218;2023-04-07T18:47:16;94891.84;;;5.92;90.50
9235;BME280;4652;42.716;23.218;2023-04-07T18:53:58;94881.97;;;5.93;90.70
9235;BME280;4652;42.716;23.218;2023-04-07T19:08:09;94884.91;;;6.48;88.03
9235;BME280;4652;42.716;23.218;2023-04-07T19:14:51;94887.06;;;6.46;91.21
9235;BME280;4652;42.716;23.218;2023-04-07T19:21:33;94867.94;;;6.17;94.14
9235;BME280;4652;42.716;23.218;2023-04-07T19:28:17;94888.28;;;6.23;97.78
9235;BME280;4652;42.716;23.218;2023-04-07T19:34:59;94903.00;;;6.31;100.00
9235;BME280;4652;42.716;23.218;2023-04-07T19:41:41;94900.06;;;6.27;100.00
9235;BME280;4652;42.716;23.218;2023-04-07T19:48:24;94899.19;;;6.17;100.00
9235;BME280;4652;42.716;23.218;2023-04-07T19:55:10;94903.19;;;6.09;100.00
9235;BME280;4652;42.716;23.218;2023-04-07T20:01:53;94905.91;;;6.24;100.00
9235;BME280;4652;42.716;23.218;2023-04-07T20:08:37;94905.16;;;6.29;100.00
9235;BME280;4652;42.716;23.218;2023-04-07T20:15:19;94902.47;;;6.24;100.00
9235;BME280;4652;42.716;23.218;2023-04-07T20:22:04;94914.34;;;6.01;100.00
9235;BME280;4652;42.716;23.218;2023-04-07T20:28:47;94916.50;;;6.04;100.00
9235;BME280;4652;42.716;23.218;2023-04-07T20:35:29;94904.50;;;6.07;100.00
9235;BME280;4652;42.716;23.218;2023-04-07T20:42:11;94926.47;;;6.19;100.00
9235;BME280;4652;42.716;23.218;2023-04-07T20:48:54;94920.28;;;6.13;100.00
9235;BME280;4652;42.716;23.218;2023-04-07T20:55:37;94919.50;;;6.13;100.00
9235;BME280;4652;42.716;23.218;2023-04-07T21:02:19;94934.13;;;6.00;100.00
9235;BME280;4652;42.716;23.218;2023-04-07T21:09:02;94929.56;;;5.96;100.00
9235;BME280;4652;42.716;23.218;2023-04-07T21:15:45;94906.16;;;5.81;100.00
9235;BME280;4652;42.716;23.218;2023-04-07T21:22:27;94922.81;;;5.88;100.00
9235;BME280;4652;42.716;23.218;2023-04-07T21:29:10;94930.72;;;5.78;100.00
9235;BME280;4652;42.716;23.218;2023-04-07T21:35:52;94916.19;;;5.64;100.00
9235;BME280;4652;42.716;23.218;2023-04-07T21:42:34;94919.47;;;5.71;100.00
9235;BME280;4652;42.716;23.218;2023-04-07T21:49:17;94915.13;;;5.65;100.00
9235;BME280;4652;42.716;23.218;2023-04-07T21:56:01;94933.09;;;5.74;100.00
9235;BME280;4652;42.716;23.218;2023-04-07T22:02:44;94931.19;;;5.70;100.00
9235;BME280;4652;42.716;23.218;2023-04-07T22:09:27;94933.38;;;5.73;100.00
9235;BME280;4652;42.716;23.218;2023-04-07T22:16:10;94927.00;;;5.79;100.00
9235;BME280;4652;42.716;23.218;2023-04-07T22:22:52;94932.06;;;5.80;100.00
9235;BME280;4652;42.716;23.218;2023-04-07T22:29:38;94926.94;;;5.69;100.00
9235;BME280;4652;42.716;23.218;2023-04-07T22:36:19;94913.44;;;5.54;100.00
9235;BME280;4652;42.716;23.218;2023-04-07T22:43:01;94925.84;;;5.70;100.00
9235;BME280;4652;42.716;23.218;2023-04-07T22:49:44;94913.03;;;5.72;100.00
9235;BME280;4652;42.716;23.218;2023-04-07T22:56:26;94916.50;;;5.67;100.00
9235;BME280;4652;42.716;23.218;2023-04-07T23:03:08;94925.69;;;5.81;100.00
9235;BME280;4652;42.716;23.218;2023-04-07T23:09:52;94924.84;;;5.76;100.00
9235;BME280;4652;42.716;23.218;2023-04-07T23:16:33;94916.28;;;5.74;100.00
9235;BME280;4652;42.716;23.218;2023-04-07T23:23:15;94916.81;;;5.76;100.00
9235;BME280;4652;42.716;23.218;2023-04-07T23:29:59;94881.09;;;5.50;100.00
9235;BME280;4652;42.716;23.218;2023-04-07T23:36:41;94891.75;;;5.45;100.00
9235;BME280;4652;42.716;23.218;2023-04-07T23:43:24;94904.13;;;5.56;100.00
9235;BME280;4652;42.716;23.218;2023-04-07T23:50:08;94857.22;;;5.33;100.00
9235;BME280;4652;42.716;23.218;2023-04-07T23:56:50;94886.09;;;5.42;100.00
